Dickinson, AL (36436)

1:59 PM CDT on March 31, 2015 (GMT -0500)
KALFRISC2 | | Change Station
CLOSE
Current Station
Personal Weather Station
Location: Perdue Hill, AL
Elevation: 70 ft
Nearby Weather Stations

Elev 70 ft 31.58 °N, 87.49 °W | Updated 4 minutes ago

Partly Cloudy
Partly Cloudy
81.3 °F
Feels Like 82 °F
N
9.0
Wind Variable Wind from West
Gusts 9.0 mph

Today
High -- | Low -- °F
--% Chance of Precip.
Yesterday
High -- | Low -- °F
Precip. -- in
6:40 AM 7:09 PM
Waxing Gibbous, 88% visible
Pressure 30.04 in
Visibility 10.0 miles
Clouds Scattered Clouds 5500 ft
Heat Index 82 °F
Dew Point 60 °F
Humidity 49%
Rainfall 0.00 in
Snow Depth Not available.
UV 8 out of 12
Pollen 10.20 out of 12
Air Quality Not available.
Flu Activity Not available.
METAR KGZH 311853Z AUTO 23011G17KT 10SM SCT055 27/14 A3005 RMK AO2 SLP173 T02720139

More Conditions Fewer Conditions

Pressure 30.04 in
Visibility 10.0 miles
Clouds Scattered Clouds 5500 ft
Heat Index 82 °F
Dew Point 60 °F
Humidity 49%
Rainfall 0.00 in
Snow Depth Not available.
UV 8 out of 12
Pollen 10.20 out of 12
Air Quality Not available.
Flu Activity Not available.
METAR KGZH 311853Z AUTO 23011G17KT 10SM SCT055 27/14 A3005 RMK AO2 SLP173 T02720139

More Conditions Fewer Conditions

10-Day Weather Forecast

Almanac

Astronomy

Mar. 31, 2015 Rise Set
Actual Time
Civil Twilight
Nautical Twilight
Astronomical Twilight
Moon
Length of Visible Light
Length of Day
Tomorrow will be .
, % of the Moon is Illuminated

Today's Extremes

State Highs State Lows

Community

WunderPhotos

Upload Photos

1,809,792 photos uploaded!

WunderBlogs® & News

Nearby

Air Quality

  Air Quality AQ Index Pollutant
Not available.

Snow Depth

Station Depth Elevation

Earthquake Activity

City Distance Mag. Time & Date
Minimum magnitude displayed is 2.5.

Coastal Water Temperatures

Place Temperature

Stations

Nearby Weather Stations

Station Location Temp. Windchill Dew Point Humidity Wind Precip. Elev Updated Type